createdAt,value
2018-01-26T00:02:05.382Z,9.30
2018-01-26T00:04:32.914Z,10.40
2018-01-26T00:07:00.450Z,11.23
2018-01-26T00:09:28.700Z,10.57
2018-01-26T00:11:56.190Z,13.10
2018-01-26T00:14:23.698Z,14.07
2018-01-26T00:16:51.175Z,15.13
2018-01-26T00:19:18.795Z,13.57
2018-01-26T00:21:46.238Z,12.70
2018-01-26T00:24:13.741Z,14.93
2018-01-26T00:26:41.244Z,17.13
2018-01-26T00:29:08.790Z,13.27
2018-01-26T00:31:36.316Z,10.63
2018-01-26T00:34:03.899Z,12.30
2018-01-26T00:36:32.127Z,11.97
2018-01-26T00:38:59.879Z,12.73
2018-01-26T00:41:27.361Z,14.53
2018-01-26T00:43:54.841Z,15.00
2018-01-26T00:46:22.429Z,16.37
2018-01-26T00:48:50.737Z,15.20
2018-01-26T00:51:18.215Z,12.70
2018-01-26T00:53:45.808Z,15.23
2018-01-26T00:56:13.497Z,16.40
2018-01-26T00:58:41.759Z,13.70
2018-01-26T01:01:09.274Z,15.20
2018-01-26T01:03:36.739Z,17.20
2018-01-26T01:06:04.243Z,15.53
2018-01-26T01:08:31.816Z,14.13
2018-01-26T01:11:00.149Z,14.73
2018-01-26T01:13:27.635Z,15.40
2018-01-26T01:15:55.083Z,13.27
2018-01-26T01:18:23.388Z,20.80
2018-01-26T01:20:50.891Z,14.00
2018-01-26T01:23:19.269Z,17.37
2018-01-26T01:25:46.730Z,16.43
2018-01-26T01:28:14.319Z,19.53
2018-01-26T01:30:41.841Z,17.47
2018-01-26T01:33:09.354Z,14.00
2018-01-26T01:35:37.819Z,15.40
2018-01-26T01:38:06.116Z,16.50
2018-01-26T01:40:33.617Z,23.00
2018-01-26T01:43:01.118Z,21.67
2018-01-26T01:45:28.778Z,20.47
2018-01-26T01:47:57.073Z,17.23
2018-01-26T01:50:25.339Z,15.57
2018-01-26T01:52:52.950Z,18.53
2018-01-26T01:55:20.472Z,20.93
2018-01-26T01:57:48.856Z,17.63
2018-01-26T02:00:17.121Z,19.13
2018-01-26T02:02:45.414Z,15.17
2018-01-26T02:05:13.052Z,18.73
2018-01-26T02:07:41.333Z,16.23
2018-01-26T02:10:09.656Z,23.13
2018-01-26T02:12:37.171Z,16.33
2018-01-26T02:15:05.436Z,16.30
2018-01-26T02:17:32.910Z,17.07
2018-01-26T02:20:01.222Z,20.93
2018-01-26T02:22:28.703Z,17.60
2018-01-26T02:24:56.295Z,19.37
2018-01-26T02:27:23.812Z,17.87
2018-01-26T02:29:51.306Z,33.90
2018-01-26T02:32:18.813Z,29.03
2018-01-26T02:34:46.295Z,26.67
2018-01-26T02:37:13.791Z,22.20
2018-01-26T02:39:41.266Z,20.67
2018-01-26T02:42:09.635Z,19.43
2018-01-26T02:44:37.950Z,22.03
2018-01-26T02:47:05.475Z,23.57
2018-01-26T02:49:33.752Z,20.97
2018-01-26T02:52:01.986Z,27.67
2018-01-26T02:54:29.523Z,24.23
2018-01-26T02:56:57.031Z,24.30
2018-01-26T02:59:24.639Z,21.23
2018-01-26T03:01:52.181Z,21.53
2018-01-26T03:04:19.610Z,24.57
2018-01-26T03:06:47.174Z,24.67
2018-01-26T03:09:14.734Z,22.47
2018-01-26T03:11:42.205Z,20.17
2018-01-26T03:14:10.524Z,24.53
2018-01-26T03:16:38.446Z,27.57
2018-01-26T03:19:05.907Z,21.13
2018-01-26T03:21:34.215Z,22.33
2018-01-26T03:24:01.744Z,25.43
2018-01-26T03:26:30.161Z,26.90
2018-01-26T03:28:57.702Z,25.83
2018-01-26T03:31:26.057Z,22.53
2018-01-26T03:33:53.571Z,25.37
2018-01-26T03:36:21.134Z,24.53
2018-01-26T03:38:48.650Z,27.73
2018-01-26T03:41:16.908Z,30.97
2018-01-26T03:43:45.159Z,24.57
2018-01-26T03:46:12.638Z,21.30
2018-01-26T03:48:40.192Z,26.10
2018-01-26T03:51:07.827Z,23.00
2018-01-26T03:53:35.322Z,24.53
2018-01-26T03:56:02.888Z,27.80
2018-01-26T03:58:31.226Z,32.80
2018-01-26T04:00:58.778Z,29.10
2018-01-26T04:03:26.285Z,24.73
2018-01-26T04:05:53.791Z,26.10
2018-01-26T04:08:21.275Z,27.20
2018-01-26T04:10:48.774Z,24.53
2018-01-26T04:13:17.035Z,25.47
2018-01-26T04:15:44.551Z,25.53
2018-01-26T04:18:12.083Z,25.57
2018-01-26T04:20:40.381Z,27.60
2018-01-26T04:23:07.878Z,32.27
2018-01-26T04:25:35.383Z,28.47
2018-01-26T04:28:02.945Z,26.37
2018-01-26T04:30:31.175Z,31.20
2018-01-26T04:32:58.647Z,27.70
2018-01-26T04:35:26.176Z,36.23
2018-01-26T04:37:53.637Z,32.93
2018-01-26T04:40:21.229Z,27.90
2018-01-26T04:42:49.713Z,30.60
2018-01-26T04:45:17.201Z,27.77
2018-01-26T04:47:44.673Z,33.43
2018-01-26T04:50:12.216Z,36.43
2018-01-26T04:52:39.667Z,24.63
2018-01-26T04:55:07.258Z,30.27
2018-01-26T04:57:34.858Z,34.23
2018-01-26T05:00:02.325Z,35.43
2018-01-26T05:02:29.807Z,36.23
2018-01-26T05:04:58.167Z,29.47
2018-01-26T05:07:25.673Z,33.70
2018-01-26T05:09:53.188Z,28.33
2018-01-26T05:12:21.467Z,34.13
2018-01-26T05:14:49.712Z,37.73
2018-01-26T05:17:17.171Z,31.70
2018-01-26T05:19:44.707Z,34.60
2018-01-26T05:22:12.211Z,33.73
2018-01-26T05:24:40.442Z,32.50
2018-01-26T05:27:07.942Z,34.70
2018-01-26T05:29:36.872Z,33.60
2018-01-26T05:32:04.414Z,33.00
2018-01-26T05:34:32.705Z,29.70
2018-01-26T05:37:00.928Z,27.67
2018-01-26T05:39:28.411Z,28.93
2018-01-26T05:41:56.691Z,36.13
2018-01-26T05:44:24.159Z,34.43
2018-01-26T05:46:51.749Z,34.90
2018-01-26T05:49:19.985Z,31.43
2018-01-26T05:51:47.447Z,31.80
2018-01-26T05:54:15.724Z,31.40
2018-01-26T05:56:44.091Z,34.07
2018-01-26T05:59:11.669Z,36.47
2018-01-26T06:01:39.267Z,35.73
2018-01-26T06:04:06.767Z,29.73
2018-01-26T06:06:34.298Z,33.30
2018-01-26T06:09:01.792Z,40.43
2018-01-26T06:11:29.266Z,29.63
2018-01-26T06:13:57.503Z,34.63
2018-01-26T06:16:25.034Z,34.20
2018-01-26T06:18:52.598Z,33.53
2018-01-26T06:21:20.100Z,34.30
2018-01-26T06:23:47.579Z,35.00
2018-01-26T06:26:16.008Z,36.10
2018-01-26T06:28:43.465Z,34.17
2018-01-26T06:31:10.943Z,30.83
2018-01-26T06:33:38.450Z,33.23
2018-01-26T06:36:06.807Z,30.37
2018-01-26T06:38:34.260Z,28.60
2018-01-26T06:41:02.567Z,35.97
2018-01-26T06:43:30.890Z,36.13
2018-01-26T06:45:58.402Z,34.33
2018-01-26T06:48:26.654Z,37.57
2018-01-26T06:50:54.160Z,35.87
2018-01-26T06:53:21.642Z,35.07
2018-01-26T06:55:49.160Z,36.27
2018-01-26T06:58:17.484Z,39.00
2018-01-26T07:00:45.038Z,35.53
2018-01-26T07:03:12.538Z,30.80
2018-01-26T07:05:40.075Z,36.27
2018-01-26T07:08:07.541Z,34.07
2018-01-26T07:10:35.831Z,32.33
2018-01-26T07:13:03.287Z,33.13
2018-01-26T07:15:30.787Z,38.17
2018-01-26T07:17:58.378Z,67.40
2018-01-26T07:20:25.827Z,31.00
2018-01-26T07:22:53.283Z,39.70
2018-01-26T07:25:20.767Z,35.97
2018-01-26T07:27:48.215Z,42.97
2018-01-26T07:30:15.756Z,34.83
2018-01-26T07:32:43.347Z,43.97
2018-01-26T07:35:10.810Z,34.17
2018-01-26T07:37:38.279Z,36.13
2018-01-26T07:40:06.526Z,31.60
2018-01-26T07:42:34.027Z,36.07
2018-01-26T07:45:02.255Z,29.20
2018-01-26T07:47:29.739Z,34.60
2018-01-26T07:49:57.278Z,32.60
2018-01-26T07:52:24.753Z,35.40
2018-01-26T07:54:52.290Z,39.37
2018-01-26T07:57:19.775Z,36.67
2018-01-26T07:59:47.241Z,30.97
2018-01-26T08:02:14.751Z,34.50
2018-01-26T08:04:42.206Z,33.43
2018-01-26T08:07:09.665Z,32.87
2018-01-26T08:09:37.188Z,37.77
2018-01-26T08:12:05.407Z,31.27
2018-01-26T08:14:32.899Z,32.40
2018-01-26T08:17:00.503Z,37.00
2018-01-26T08:19:28.720Z,30.97
2018-01-26T08:21:56.200Z,27.90
2018-01-26T08:24:23.902Z,33.50
2018-01-26T08:26:51.375Z,30.87
2018-01-26T08:29:18.875Z,26.10
2018-01-26T08:31:46.359Z,29.40
2018-01-26T08:34:14.639Z,28.07
2018-01-26T08:36:42.123Z,31.50
2018-01-26T08:39:09.622Z,31.43
2018-01-26T08:41:37.076Z,42.83
2018-01-26T08:44:04.577Z,29.53
2018-01-26T08:46:32.097Z,32.80
2018-01-26T08:48:59.563Z,35.67
2018-01-26T08:51:27.019Z,29.80
2018-01-26T08:53:54.505Z,26.13
2018-01-26T08:56:22.706Z,32.63
2018-01-26T08:58:50.161Z,30.50
2018-01-26T09:01:17.658Z,34.90
2018-01-26T09:03:45.108Z,31.73
2018-01-26T09:06:12.576Z,33.23
2018-01-26T09:08:40.067Z,31.00
2018-01-26T09:11:08.493Z,41.07
2018-01-26T09:13:36.067Z,36.13
2018-01-26T09:16:03.577Z,32.77
2018-01-26T09:18:31.907Z,28.13
2018-01-26T09:20:59.401Z,34.17
2018-01-26T09:23:27.679Z,30.10
2018-01-26T09:25:55.915Z,36.83
2018-01-26T09:28:23.402Z,31.67
2018-01-26T09:30:51.774Z,32.57
2018-01-26T09:33:19.246Z,30.57
2018-01-26T09:35:46.716Z,25.50
2018-01-26T09:38:15.033Z,29.33
2018-01-26T09:40:42.534Z,32.17
2018-01-26T09:43:10.204Z,31.63
2018-01-26T09:45:38.482Z,26.60
2018-01-26T09:48:06.737Z,34.80
2018-01-26T09:50:34.305Z,29.00
2018-01-26T09:53:01.784Z,31.57
2018-01-26T09:55:30.057Z,33.83
2018-01-26T09:57:57.503Z,31.97
2018-01-26T10:00:25.751Z,30.17
2018-01-26T10:02:53.547Z,32.80
2018-01-26T10:05:21.006Z,30.97
2018-01-26T10:07:49.277Z,29.60
2018-01-26T10:10:16.746Z,34.10
2018-01-26T10:12:44.208Z,30.87
2018-01-26T10:15:11.744Z,31.97
2018-01-26T10:17:39.201Z,34.10
2018-01-26T10:20:06.756Z,27.67
2018-01-26T10:22:34.243Z,30.50
2018-01-26T10:25:02.483Z,30.47
2018-01-26T10:27:29.967Z,27.43
2018-01-26T10:29:57.499Z,31.33
2018-01-26T10:32:24.989Z,27.50
2018-01-26T10:34:52.557Z,28.47
2018-01-26T10:37:20.086Z,32.87
2018-01-26T10:39:47.579Z,27.67
2018-01-26T10:42:15.843Z,29.83
2018-01-26T10:44:43.765Z,34.83
2018-01-26T10:47:11.263Z,33.33
2018-01-26T10:49:38.728Z,28.97
2018-01-26T10:52:07.048Z,25.77
2018-01-26T10:54:34.536Z,31.03
2018-01-26T10:57:02.165Z,32.30
2018-01-26T10:59:29.651Z,28.30
2018-01-26T11:01:57.174Z,29.47
2018-01-26T11:04:25.399Z,34.17
2018-01-26T11:06:52.880Z,31.47
2018-01-26T11:09:20.338Z,32.80
2018-01-26T11:11:47.795Z,38.80
2018-01-26T11:14:15.322Z,36.20
2018-01-26T11:16:42.782Z,34.47
2018-01-26T11:19:10.266Z,31.37
2018-01-26T11:21:37.807Z,26.97
2018-01-26T11:24:05.303Z,30.30
2018-01-26T11:26:33.571Z,30.33
2018-01-26T11:29:01.044Z,36.20
2018-01-26T11:31:29.268Z,37.13
2018-01-26T11:33:56.751Z,26.90
2018-01-26T11:36:24.266Z,29.27
2018-01-26T11:38:51.743Z,32.10
2018-01-26T11:41:19.209Z,27.67
2018-01-26T11:43:46.804Z,32.63
2018-01-26T11:46:14.311Z,32.87
2018-01-26T11:48:41.817Z,26.97
2018-01-26T11:51:09.421Z,27.87
2018-01-26T11:53:36.886Z,26.73
2018-01-26T11:56:04.359Z,30.53
2018-01-26T11:58:31.907Z,22.97
2018-01-26T12:00:59.437Z,20.53
2018-01-26T12:03:26.899Z,25.93
2018-01-26T12:05:54.440Z,19.27
2018-01-26T12:08:22.728Z,27.70
2018-01-26T12:10:51.143Z,24.37
2018-01-26T12:13:18.739Z,26.03
2018-01-26T12:15:46.208Z,27.77
2018-01-26T12:18:13.782Z,25.23
2018-01-26T12:20:42.299Z,22.20
2018-01-26T12:23:09.956Z,30.73
2018-01-26T12:25:37.437Z,26.67
2018-01-26T12:28:04.925Z,30.90
2018-01-26T12:30:32.379Z,22.33
2018-01-26T12:33:00.101Z,16.83
2018-01-26T12:35:27.607Z,23.67
2018-01-26T12:37:55.273Z,19.90
2018-01-26T12:40:22.788Z,17.70
2018-01-26T12:42:50.324Z,17.87
2018-01-26T12:45:18.107Z,21.63
2018-01-26T12:47:45.600Z,15.37
2018-01-26T12:50:13.144Z,25.90
2018-01-26T12:52:40.661Z,16.87
2018-01-26T12:55:08.302Z,21.73
2018-01-26T12:57:36.620Z,17.93
2018-01-26T13:00:04.137Z,22.07
2018-01-26T13:02:31.738Z,18.10
2018-01-26T13:04:59.587Z,19.57
2018-01-26T13:07:28.955Z,21.93
2018-01-26T13:09:57.102Z,17.07
2018-01-26T13:12:24.628Z,18.43
2018-01-26T13:14:52.890Z,24.47
2018-01-26T13:17:21.810Z,19.83
2018-01-26T13:19:49.305Z,20.17
2018-01-26T13:22:16.935Z,22.50
2018-01-26T13:24:44.448Z,23.50
2018-01-26T13:27:12.582Z,24.90
2018-01-26T13:29:40.059Z,25.63
2018-01-26T13:32:07.548Z,21.87
2018-01-26T13:34:35.095Z,22.37
2018-01-26T13:37:02.571Z,25.47
2018-01-26T13:39:30.821Z,34.43
2018-01-26T13:41:58.372Z,28.23
2018-01-26T13:44:25.866Z,24.50
2018-01-26T13:46:54.147Z,24.50
2018-01-26T13:49:22.562Z,22.17
2018-01-26T13:51:50.347Z,30.03
2018-01-26T13:54:17.915Z,24.27
2018-01-26T13:56:45.459Z,33.57
2018-01-26T13:59:12.979Z,22.60
2018-01-26T14:01:41.236Z,23.23
2018-01-26T14:04:09.509Z,24.03
2018-01-26T14:06:37.071Z,29.53
2018-01-26T14:09:04.532Z,27.13
2018-01-26T14:11:32.094Z,23.77
2018-01-26T14:13:59.558Z,32.93
2018-01-26T14:16:27.795Z,28.60
2018-01-26T14:18:55.299Z,31.53
2018-01-26T14:21:23.545Z,29.23
2018-01-26T14:23:51.063Z,28.43
2018-01-26T14:26:18.590Z,34.33
2018-01-26T14:28:46.860Z,34.63
2018-01-26T14:31:15.111Z,28.00
2018-01-26T14:33:42.592Z,31.73
2018-01-26T14:36:10.049Z,28.20
2018-01-26T14:38:37.504Z,34.07
2018-01-26T14:41:04.973Z,37.00
2018-01-26T14:43:33.219Z,31.20
2018-01-26T14:46:00.802Z,33.20
2018-01-26T14:48:28.267Z,32.63
2018-01-26T14:50:56.520Z,32.50
2018-01-26T14:53:24.007Z,37.87
2018-01-26T14:55:52.280Z,32.57
2018-01-26T14:58:20.515Z,32.97
2018-01-26T15:00:47.977Z,33.27
2018-01-26T15:03:15.514Z,30.63
2018-01-26T15:05:42.985Z,31.80
2018-01-26T15:08:10.461Z,35.23
2018-01-26T15:10:37.935Z,32.30
2018-01-26T15:13:05.411Z,41.43
2018-01-26T15:15:33.765Z,34.17
2018-01-26T15:18:01.246Z,32.10
2018-01-26T15:20:29.523Z,26.60
2018-01-26T15:22:57.029Z,26.63
2018-01-26T15:25:24.503Z,20.77
2018-01-26T15:27:51.989Z,21.63
2018-01-26T15:30:19.520Z,22.63
2018-01-26T15:32:47.004Z,25.60
2018-01-26T15:35:14.473Z,20.63
2018-01-26T15:37:41.943Z,20.47
2018-01-26T15:40:10.197Z,24.50
2018-01-26T15:42:37.651Z,20.23
2018-01-26T15:45:05.187Z,23.60
2018-01-26T15:47:32.663Z,26.10
2018-01-26T15:50:00.139Z,20.20
2018-01-26T15:52:27.643Z,18.30
2018-01-26T15:54:55.123Z,20.90
2018-01-26T15:57:22.560Z,21.97
2018-01-26T15:59:50.115Z,16.67
2018-01-26T16:02:17.614Z,21.80
2018-01-26T16:04:45.088Z,19.63
2018-01-26T16:07:12.571Z,19.87
2018-01-26T16:09:40.825Z,34.47
2018-01-26T16:12:08.282Z,32.67
2018-01-26T16:14:35.723Z,24.43
2018-01-26T16:17:03.194Z,25.47
2018-01-26T16:19:30.688Z,27.80
2018-01-26T16:21:58.887Z,22.17
2018-01-26T16:24:26.386Z,24.40
2018-01-26T16:26:53.835Z,23.10
2018-01-26T16:29:21.382Z,21.90
2018-01-26T16:31:48.835Z,19.30
2018-01-26T16:34:16.315Z,24.40
2018-01-26T16:36:43.777Z,22.57
2018-01-26T16:39:11.271Z,27.47
2018-01-26T16:41:38.726Z,26.00
2018-01-26T16:44:06.210Z,31.43
2018-01-26T16:46:33.971Z,39.23
2018-01-26T16:49:01.443Z,68.80
2018-01-26T16:51:28.931Z,27.50
2018-01-26T16:53:56.392Z,29.77
2018-01-26T16:56:24.005Z,31.40
2018-01-26T16:58:51.478Z,25.47
2018-01-26T17:01:18.987Z,39.90
2018-01-26T17:03:47.221Z,25.87
2018-01-26T17:06:14.755Z,24.10
2018-01-26T17:08:42.226Z,25.93
2018-01-26T17:11:09.683Z,28.20
2018-01-26T17:13:37.233Z,31.90
2018-01-26T17:16:04.950Z,37.50
2018-01-26T17:18:32.431Z,28.37
2018-01-26T17:21:00.690Z,29.73
2018-01-26T17:23:28.941Z,27.27
2018-01-26T17:25:56.396Z,24.90
2018-01-26T17:28:23.890Z,26.43
2018-01-26T17:30:52.328Z,32.43
2018-01-26T17:33:19.841Z,35.97
2018-01-26T17:35:48.080Z,30.27
2018-01-26T17:38:16.865Z,29.90
2018-01-26T17:40:44.326Z,30.43
2018-01-26T17:43:11.788Z,34.00
2018-01-26T17:45:39.266Z,23.73
2018-01-26T17:48:07.485Z,25.37
2018-01-26T17:50:34.986Z,30.90
2018-01-26T17:53:02.660Z,26.80
2018-01-26T17:55:30.883Z,25.93
2018-01-26T17:57:58.443Z,31.27
2018-01-26T18:00:25.923Z,27.40
2018-01-26T18:02:53.393Z,33.87
2018-01-26T18:05:20.882Z,28.73
2018-01-26T18:07:49.147Z,33.53
2018-01-26T18:10:16.615Z,38.90
2018-01-26T18:12:44.853Z,37.70
2018-01-26T18:15:12.407Z,29.60
2018-01-26T18:17:39.900Z,44.50
2018-01-26T18:20:07.370Z,32.47
2018-01-26T18:22:34.979Z,36.17
2018-01-26T18:25:02.462Z,34.20
2018-01-26T18:27:29.930Z,31.10
2018-01-26T18:29:57.471Z,37.37
2018-01-26T18:32:25.057Z,36.40
2018-01-26T18:34:52.926Z,37.40
2018-01-26T18:37:20.969Z,34.63
2018-01-26T18:39:48.723Z,35.57
2018-01-26T18:42:16.235Z,36.57
2018-01-26T18:44:44.495Z,32.33
2018-01-26T18:47:11.951Z,33.57
2018-01-26T18:49:39.517Z,35.30
2018-01-26T18:52:07.467Z,34.33
2018-01-26T18:54:35.357Z,33.93
2018-01-26T18:57:03.067Z,39.77
2018-01-26T18:59:30.731Z,40.20
2018-01-26T19:01:58.264Z,44.10
2018-01-26T19:04:25.702Z,39.83
2018-01-26T19:06:53.820Z,39.40
2018-01-26T19:09:21.343Z,37.07
2018-01-26T19:11:49.665Z,39.90
2018-01-26T19:14:17.226Z,38.03
2018-01-26T19:16:44.710Z,35.70
2018-01-26T19:19:12.373Z,35.83
2018-01-26T19:21:39.846Z,37.20
2018-01-26T19:24:07.394Z,52.73
2018-01-26T19:26:36.094Z,35.33
2018-01-26T19:29:03.655Z,38.17
2018-01-26T19:31:31.416Z,39.50
2018-01-26T19:33:59.136Z,32.60
2018-01-26T19:36:26.718Z,36.50
2018-01-26T19:38:54.948Z,38.90
2018-01-26T19:41:23.757Z,36.57
2018-01-26T19:43:51.250Z,39.70
2018-01-26T19:46:18.806Z,37.13
2018-01-26T19:48:46.371Z,41.87
2018-01-26T19:51:14.058Z,43.70
2018-01-26T19:53:43.061Z,39.37
2018-01-26T19:56:11.134Z,46.07
2018-01-26T19:58:40.092Z,36.43
2018-01-26T20:01:07.751Z,39.50
2018-01-26T20:03:35.293Z,39.20
2018-01-26T20:06:21.341Z,42.27
2018-01-26T20:08:54.979Z,41.93
2018-01-26T20:11:22.663Z,42.07
2018-01-26T20:13:50.464Z,39.43
2018-01-26T20:16:18.033Z,50.10
2018-01-26T20:18:46.532Z,43.50
2018-01-26T20:21:14.088Z,42.30
2018-01-26T20:23:42.435Z,42.53
2018-01-26T20:26:10.119Z,51.60
2018-01-26T20:28:38.467Z,54.57
2018-01-26T20:31:05.996Z,49.23
2018-01-26T20:33:34.030Z,51.57
2018-01-26T20:36:02.558Z,43.07
2018-01-26T20:38:30.035Z,45.70
2018-01-26T20:40:57.822Z,50.80
2018-01-26T20:43:25.528Z,45.07
2018-01-26T20:45:53.093Z,48.23
2018-01-26T20:48:20.968Z,53.80
2018-01-26T20:50:48.586Z,50.10
2018-01-26T20:53:16.098Z,43.03
2018-01-26T20:55:44.445Z,47.70
2018-01-26T20:58:12.548Z,43.93
2018-01-26T21:00:40.035Z,54.03
2018-01-26T21:03:07.628Z,60.87
2018-01-26T21:05:35.932Z,53.37
2018-01-26T21:08:03.503Z,50.60
2018-01-26T21:10:31.489Z,51.43
2018-01-26T21:13:02.313Z,53.13
2018-01-26T21:15:31.166Z,56.13
2018-01-26T21:18:00.105Z,61.63
2018-01-26T21:20:30.065Z,56.33
2018-01-26T21:22:59.768Z,55.70
2018-01-26T21:25:29.443Z,55.27
2018-01-26T21:28:00.788Z,56.93
2018-01-26T21:30:30.225Z,50.50
2018-01-26T21:32:59.748Z,47.00
2018-01-26T21:35:31.283Z,49.10
2018-01-26T21:37:59.892Z,48.07
2018-01-26T21:40:29.958Z,49.27
2018-01-26T21:42:58.975Z,47.77
2018-01-26T21:45:26.515Z,50.40
2018-01-26T21:47:55.492Z,48.23
2018-01-26T21:50:23.041Z,48.00
2018-01-26T21:52:50.625Z,51.73
2018-01-26T21:55:18.119Z,49.63
2018-01-26T21:57:45.831Z,44.10
2018-01-26T22:00:15.208Z,52.70
2018-01-26T22:02:44.484Z,45.43
2018-01-26T22:05:16.020Z,44.47
2018-01-26T22:07:44.685Z,46.33
2018-01-26T22:10:12.179Z,52.53
2018-01-26T22:12:40.640Z,70.80
2018-01-26T22:15:08.303Z,43.90
2018-01-26T22:17:35.789Z,46.57
2018-01-26T22:20:03.435Z,54.40
2018-01-26T22:22:31.751Z,48.13
2018-01-26T22:25:00.619Z,40.00
2018-01-26T22:27:28.176Z,55.90
2018-01-26T22:29:56.547Z,42.63
2018-01-26T22:32:24.095Z,44.63
2018-01-26T22:34:52.643Z,49.67
2018-01-26T22:37:21.264Z,48.17
2018-01-26T22:39:49.623Z,49.63
2018-01-26T22:42:17.442Z,47.73
2018-01-26T22:44:45.155Z,45.77
2018-01-26T22:47:12.729Z,51.23
2018-01-26T22:49:40.403Z,45.60
2018-01-26T22:52:07.984Z,43.80
2018-01-26T22:54:35.611Z,40.07
2018-01-26T22:57:03.075Z,41.17
2018-01-26T22:59:31.224Z,43.93
2018-01-26T23:01:58.984Z,46.57
2018-01-26T23:04:26.817Z,45.23
2018-01-26T23:06:55.089Z,38.97
2018-01-26T23:09:23.746Z,43.03
2018-01-26T23:11:52.155Z,47.33
2018-01-26T23:14:19.665Z,41.23
2018-01-26T23:16:47.732Z,45.23
2018-01-26T23:19:15.206Z,45.77
2018-01-26T23:21:42.818Z,43.33
2018-01-26T23:24:11.094Z,44.50
2018-01-26T23:26:39.334Z,43.80
2018-01-26T23:29:06.925Z,44.43
2018-01-26T23:31:34.477Z,39.13
2018-01-26T23:34:03.238Z,45.13
2018-01-26T23:36:30.781Z,45.00
2018-01-26T23:38:58.431Z,44.30
2018-01-26T23:41:25.914Z,50.30
2018-01-26T23:43:53.462Z,48.00
2018-01-26T23:46:21.037Z,44.90
2018-01-26T23:48:49.053Z,42.53
2018-01-26T23:51:17.885Z,54.27
2018-01-26T23:53:45.530Z,45.47
2018-01-26T23:56:13.199Z,50.47
2018-01-26T23:58:40.660Z,45.67
